Time;durP1;ratioP1;P1;durP2;ratioP2;P2;SDS_P1;SDS_P2;PMS_P1;PMS_P2;Temp;Humidity;BMP_temperature;BMP_pressure;BME280_temperature;BME280_humidity;BME280_pressure;Samples;Min_cycle;Max_cycle;Signal;HPM_P1;HPM_P2
2022/01/09 00:00:46;;;;;;;11.77;6.18;;;;;;;-1.03;99.13;99202.44;5051745;28;20049;-58
2022/01/09 00:03:13;;;;;;;12.18;6.45;;;;;;;-0.95;98.48;99206.47;5044958;28;20057;-60
2022/01/09 00:05:41;;;;;;;12.45;6.53;;;;;;;-1.03;98.94;99201.59;5057768;28;20143;-63
2022/01/09 00:08:08;;;;;;;16.50;6.35;;;;;;;-1.02;98.60;99193.78;5052989;28;20052;-60
2022/01/09 00:10:35;;;;;;;13.73;7.22;;;;;;;-1.08;98.83;99182.78;5035733;28;20099;-59
2022/01/09 00:13:03;;;;;;;12.20;6.82;;;;;;;-0.91;98.05;99182.22;5052984;28;20047;-59
2022/01/09 00:15:30;;;;;;;14.18;7.10;;;;;;;-0.96;98.37;99186.69;5049910;28;20053;-60
2022/01/09 00:17:57;;;;;;;13.65;6.70;;;;;;;-0.91;97.61;99187.38;5046974;28;20053;-58
2022/01/09 00:20:24;;;;;;;13.77;7.05;;;;;;;-0.94;96.74;99172.84;5051396;28;20045;-61
2022/01/09 00:22:52;;;;;;;13.73;6.43;;;;;;;-1.00;97.06;99179.94;5041481;28;20135;-60
2022/01/09 00:25:21;;;;;;;12.75;6.18;;;;;;;-0.94;96.98;99174.59;5027074;28;20064;-62
2022/01/09 00:27:49;;;;;;;11.25;6.00;;;;;;;-1.00;96.94;99173.03;5042964;28;20045;-64
2022/01/09 00:30:18;;;;;;;16.77;6.90;;;;;;;-1.10;97.54;99169.09;5046104;28;20061;-62
2022/01/09 00:32:45;;;;;;;10.15;6.28;;;;;;;-1.15;97.92;99171.00;5052069;28;20052;-60
2022/01/09 00:35:13;;;;;;;13.13;6.68;;;;;;;-1.11;97.26;99162.25;5046271;28;20048;-59
2022/01/09 00:37:41;;;;;;;13.43;7.00;;;;;;;-1.10;97.69;99156.19;5044663;28;20410;-62
2022/01/09 00:40:11;;;;;;;9.98;6.43;;;;;;;-1.15;97.62;99143.44;5044178;28;20052;-63
2022/01/09 00:42:38;;;;;;;13.77;6.70;;;;;;;-1.13;97.50;99149.38;5027284;28;20061;-60
2022/01/09 00:45:07;;;;;;;12.18;6.65;;;;;;;-1.12;97.38;99155.41;5048056;28;20044;-57
2022/01/09 00:47:34;;;;;;;14.00;6.50;;;;;;;-1.19;97.88;99143.59;5054145;28;20057;-59
2022/01/09 00:50:02;;;;;;;13.60;6.28;;;;;;;-1.23;98.12;99148.03;5041549;28;20051;-63
2022/01/09 00:52:30;;;;;;;11.20;6.03;;;;;;;-1.28;98.59;99144.75;5045831;28;20124;-63
2022/01/09 00:54:57;;;;;;;11.85;6.28;;;;;;;-1.27;98.64;99139.53;5052163;28;20397;-60
2022/01/09 00:57:24;;;;;;;13.85;6.07;;;;;;;-1.29;98.92;99137.91;5048337;28;20842;-58
2022/01/09 00:59:51;;;;;;;14.23;6.53;;;;;;;-1.25;98.53;99134.34;5048845;28;20075;-62
2022/01/09 01:02:18;;;;;;;12.73;6.72;;;;;;;-1.23;98.55;99137.69;5048236;28;20179;-57
2022/01/09 01:04:48;;;;;;;10.30;6.63;;;;;;;-1.19;97.79;99134.13;5050319;28;20079;-58
2022/01/09 01:07:15;;;;;;;14.23;6.50;;;;;;;-1.20;98.20;99126.44;5040248;28;20055;-61
2022/01/09 01:09:42;;;;;;;11.93;6.00;;;;;;;-1.17;97.63;99123.72;5049402;28;20067;-59
2022/01/09 01:12:09;;;;;;;13.23;6.43;;;;;;;-1.27;97.85;99124.03;5035948;28;20133;-60
2022/01/09 01:14:36;;;;;;;12.43;7.45;;;;;;;-1.21;97.93;99114.44;5049277;28;20057;-60
2022/01/09 01:17:04;;;;;;;13.95;6.28;;;;;;;-1.27;98.05;99118.03;5060185;28;20136;-60
2022/01/09 01:19:31;;;;;;;10.68;6.35;;;;;;;-1.23;97.87;99109.28;5032692;28;20104;-56
2022/01/09 01:22:19;;;;;;;13.20;6.25;;;;;;;-1.27;97.89;99111.13;5048296;28;20165;-59
2022/01/09 01:24:47;;;;;;;11.55;5.95;;;;;;;-1.18;97.13;99102.22;5050242;28;20132;-64
2022/01/09 01:27:14;;;;;;;11.05;6.45;;;;;;;-1.25;97.81;99098.19;5054217;28;20057;-58
2022/01/09 01:29:41;;;;;;;11.38;6.53;;;;;;;-1.25;97.69;99094.78;5042041;28;20535;-63
2022/01/09 01:32:09;;;;;;;11.30;6.55;;;;;;;-1.28;98.01;99093.97;5045307;28;20132;-60
2022/01/09 01:34:36;;;;;;;17.17;6.45;;;;;;;-1.25;97.02;99089.59;5022374;28;20466;-58
2022/01/09 01:37:03;;;;;;;15.73;6.57;;;;;;;-1.32;97.50;99088.97;5030461;28;20060;-59
2022/01/09 01:39:30;;;;;;;10.68;6.57;;;;;;;-1.20;97.53;99079.97;5040567;28;20067;-59
2022/01/09 01:41:57;;;;;;;14.93;6.97;;;;;;;-1.26;97.04;99075.88;5051534;28;20049;-59
2022/01/09 01:44:25;;;;;;;15.27;6.40;;;;;;;-1.28;97.21;99073.31;5050295;28;20072;-60
2022/01/09 01:46:52;;;;;;;14.05;6.28;;;;;;;-1.20;96.86;99064.47;5046251;28;20610;-58
2022/01/09 01:49:19;;;;;;;11.05;5.82;;;;;;;-1.12;96.18;99059.88;5039792;28;20045;-59
2022/01/09 01:51:47;;;;;;;13.60;7.20;;;;;;;-1.14;95.91;99059.91;5044219;28;20430;-59
2022/01/09 01:54:14;;;;;;;13.00;6.18;;;;;;;-1.19;96.01;99055.81;5048704;28;20057;-60
2022/01/09 01:56:41;;;;;;;8.57;6.03;;;;;;;-1.13;95.87;99064.16;5039744;28;20045;-60
2022/01/09 01:59:08;;;;;;;12.57;6.97;;;;;;;-1.11;95.23;99048.63;5049151;28;20048;-61
2022/01/09 02:01:36;;;;;;;12.52;6.20;;;;;;;-1.17;95.46;99054.88;5050915;28;20144;-59
2022/01/09 02:04:04;;;;;;;12.38;6.90;;;;;;;-1.17;95.54;99054.00;5055639;28;20124;-62
2022/01/09 02:06:33;;;;;;;12.70;7.10;;;;;;;-1.16;95.43;99038.47;5043426;28;20665;-61
2022/01/09 02:09:01;;;;;;;13.77;6.47;;;;;;;-1.15;95.05;99035.00;5048984;28;20059;-60
2022/01/09 02:11:29;;;;;;;9.52;5.60;;;;;;;-1.15;95.10;99040.16;5030830;28;20064;-58
2022/01/09 02:13:56;;;;;;;14.18;7.03;;;;;;;-1.15;94.94;99032.41;5030693;28;20663;-62
2022/01/09 02:16:23;;;;;;;9.68;6.15;;;;;;;-1.09;94.38;99032.16;5017491;28;20143;-61
2022/01/09 02:18:51;;;;;;;12.02;6.40;;;;;;;-1.09;94.16;99036.50;5042452;28;20131;-61
2022/01/09 02:21:18;;;;;;;9.57;6.05;;;;;;;-1.12;94.39;99028.88;5041618;28;20057;-61
2022/01/09 02:23:47;;;;;;;12.40;6.82;;;;;;;-1.13;94.73;99016.84;5042949;28;20067;-58
2022/01/09 02:26:19;;;;;;;13.38;6.07;;;;;;;-1.11;94.31;99018.50;5053767;28;20477;-62
2022/01/09 02:28:47;;;;;;;14.20;7.10;;;;;;;-1.06;94.29;99008.81;5041664;28;20059;-59
2022/01/09 02:31:14;;;;;;;10.38;6.05;;;;;;;-1.06;94.00;99005.41;5049468;28;20056;-61
2022/01/09 02:33:42;;;;;;;12.57;6.68;;;;;;;-1.06;93.67;99005.41;5038414;28;20075;-61
2022/01/09 02:36:09;;;;;;;12.82;6.40;;;;;;;-1.11;94.05;99003.00;5046016;28;20060;-62
2022/01/09 02:38:37;;;;;;;11.57;6.28;;;;;;;-1.04;93.97;99001.00;5040768;28;20143;-63
2022/01/09 02:41:04;;;;;;;11.32;6.18;;;;;;;-1.06;94.12;98997.66;5041698;28;20049;-63
2022/01/09 02:43:31;;;;;;;12.63;6.30;;;;;;;-1.12;94.44;98985.00;5039284;28;20516;-57
2022/01/09 02:46:30;;;;;;;13.30;6.93;;;;;;;-1.10;94.36;98994.34;5037144;28;20055;-60
2022/01/09 02:48:57;;;;;;;12.70;6.88;;;;;;;-1.13;94.26;98989.28;5040273;28;20137;-59
2022/01/09 02:51:25;;;;;;;12.40;7.13;;;;;;;-1.20;94.93;98984.44;5044189;28;20415;-60
2022/01/09 02:53:58;;;;;;;14.38;6.60;;;;;;;-1.11;94.60;98986.66;5023902;28;20067;-60
2022/01/09 02:56:25;;;;;;;17.05;7.65;;;;;;;-1.01;93.73;98975.06;5049472;28;20662;-63
2022/01/09 02:58:52;;;;;;;13.35;7.38;;;;;;;-1.10;93.97;98970.25;5038930;28;20045;-63
2022/01/09 03:01:19;;;;;;;12.05;6.63;;;;;;;-1.08;94.54;98969.31;5038539;28;20396;-60
2022/01/09 03:03:46;;;;;;;10.40;7.10;;;;;;;-1.14;94.22;98966.13;5061387;22;20051;-60
2022/01/09 03:06:14;;;;;;;12.38;6.65;;;;;;;-1.08;94.64;98973.63;5045925;28;20143;-60
2022/01/09 03:08:41;;;;;;;15.60;6.40;;;;;;;-1.07;94.19;98963.25;5054787;28;20072;-60
2022/01/09 03:11:08;;;;;;;14.80;6.70;;;;;;;-1.09;94.33;98959.88;5043620;28;20045;-61
2022/01/09 03:13:35;;;;;;;12.02;6.25;;;;;;;-1.10;94.60;98952.19;5047122;28;20079;-61
2022/01/09 03:16:03;;;;;;;12.38;6.47;;;;;;;-1.11;94.75;98946.19;5026092;28;20042;-61
2022/01/09 03:18:30;;;;;;;14.32;6.40;;;;;;;-1.16;95.03;98942.09;5044192;28;20103;-60
2022/01/09 03:20:57;;;;;;;10.90;6.35;;;;;;;-1.11;95.32;98935.03;5050624;28;20041;-59
2022/01/09 03:23:24;;;;;;;10.38;6.03;;;;;;;-1.08;94.61;98937.47;5052174;28;20163;-61
2022/01/09 03:25:51;;;;;;;15.05;6.65;;;;;;;-1.22;95.06;98935.41;5051042;28;20055;-60
2022/01/09 03:28:18;;;;;;;12.55;7.05;;;;;;;-1.18;95.09;98930.97;5051249;28;20049;-63
2022/01/09 03:30:46;;;;;;;14.23;6.70;;;;;;;-1.14;94.86;98930.81;5051968;28;20054;-60
2022/01/09 03:33:13;;;;;;;16.70;6.85;;;;;;;-1.16;95.00;98932.63;5046805;28;20072;-62
2022/01/09 03:35:40;;;;;;;12.73;6.75;;;;;;;-1.21;95.06;98929.38;5049758;28;20049;-59
2022/01/09 03:38:07;;;;;;;14.60;7.22;;;;;;;-1.19;95.42;98926.72;5047426;28;20515;-60
2022/01/09 03:40:34;;;;;;;12.10;6.80;;;;;;;-1.17;95.28;98910.28;5054263;28;20133;-61
2022/01/09 03:43:01;;;;;;;13.13;7.25;;;;;;;-1.11;95.00;98920.34;5051221;28;20099;-60
2022/01/09 03:45:29;;;;;;;11.18;6.32;;;;;;;-1.07;94.32;98921.09;5046059;28;20056;-61
2022/01/09 03:47:56;;;;;;;10.00;6.45;;;;;;;-1.10;94.68;98916.03;5051753;28;20124;-61
2022/01/09 03:50:24;;;;;;;10.80;6.10;;;;;;;-1.13;94.88;98916.97;5045347;28;20531;-60
2022/01/09 03:52:52;;;;;;;13.40;6.97;;;;;;;-1.09;95.18;98921.13;5053246;28;20155;-60
2022/01/09 03:55:21;;;;;;;14.50;7.47;;;;;;;-1.15;94.89;98917.97;5049456;28;20194;-59
2022/01/09 03:57:49;;;;;;;16.35;6.30;;;;;;;-1.14;95.07;98923.06;5049976;28;20075;-58
2022/01/09 04:00:21;;;;;;;13.05;6.32;;;;;;;-1.19;95.42;98924.97;5046606;28;20045;-60
2022/01/09 04:02:50;;;;;;;12.82;6.13;;;;;;;-1.20;95.24;98925.88;5043096;28;20055;-60
2022/01/09 04:05:17;;;;;;;12.50;5.85;;;;;;;-1.18;95.22;98925.81;5044729;28;20505;-61
2022/01/09 04:07:44;;;;;;;9.60;5.85;;;;;;;-1.20;95.64;98917.28;5052061;28;20053;-59
2022/01/09 04:10:28;;;;;;;13.75;6.50;;;;;;;-1.05;94.84;98914.09;5044823;28;20394;-61
2022/01/09 04:12:59;;;;;;;8.73;5.65;;;;;;;-1.16;94.69;98911.13;5048324;28;20559;-60
2022/01/09 04:15:27;;;;;;;11.00;5.32;;;;;;;-1.23;94.90;98907.91;5047311;28;20092;-61
2022/01/09 04:17:56;;;;;;;12.77;5.95;;;;;;;-1.20;95.18;98912.13;5047148;28;20089;-62
2022/01/09 04:20:31;;;;;;;11.43;7.22;;;;;;;-1.16;95.25;98916.28;5044245;28;20053;-61
2022/01/09 04:22:58;;;;;;;14.50;6.35;;;;;;;-1.17;95.31;98912.00;5047298;28;20049;-62
2022/01/09 04:25:26;;;;;;;10.98;5.93;;;;;;;-1.10;94.66;98916.03;5047563;28;20049;-61
2022/01/09 04:27:54;;;;;;;12.43;5.57;;;;;;;-1.17;94.21;98906.84;5051982;28;20072;-62
2022/01/09 04:30:21;;;;;;;13.75;5.97;;;;;;;-1.19;94.90;98903.47;5047781;28;20133;-62
2022/01/09 04:32:48;;;;;;;12.13;6.20;;;;;;;-1.16;94.21;98899.03;5041836;28;20137;-62
2022/01/09 04:35:17;;;;;;;11.70;5.30;;;;;;;-1.09;94.53;98895.31;5046307;28;20063;-61
2022/01/09 04:37:44;;;;;;;9.27;5.78;;;;;;;-1.14;94.16;98892.06;5050045;28;20079;-61
2022/01/09 04:40:13;;;;;;;15.68;5.50;;;;;;;-1.18;94.54;98882.75;5043037;28;20046;-62
2022/01/09 04:42:47;;;;;;;12.00;5.68;;;;;;;-1.14;94.73;98883.47;5033826;28;20128;-61
2022/01/09 04:45:16;;;;;;;10.65;5.28;;;;;;;-1.14;94.68;98879.16;5047361;28;20053;-61
2022/01/09 04:47:47;;;;;;;11.18;5.30;;;;;;;-1.19;94.82;98880.25;5051982;28;20575;-62
2022/01/09 04:50:20;;;;;;;12.20;5.63;;;;;;;-1.10;94.12;98872.13;5048277;28;20060;-61
2022/01/09 04:52:47;;;;;;;9.15;4.72;;;;;;;-1.14;94.21;98874.00;5051445;28;20128;-60
2022/01/09 04:55:14;;;;;;;12.38;5.05;;;;;;;-0.98;93.53;98876.81;5050921;28;20057;-60
2022/01/09 04:57:42;;;;;;;8.50;4.78;;;;;;;-1.08;93.63;98872.91;5048724;28;20045;-61
2022/01/09 05:00:09;;;;;;;9.13;5.10;;;;;;;-1.03;93.34;98868.41;5049781;28;20063;-60
2022/01/09 05:02:37;;;;;;;8.48;4.72;;;;;;;-1.09;93.46;98876.41;5045389;28;20132;-61
2022/01/09 05:05:06;;;;;;;10.23;5.28;;;;;;;-1.06;93.11;98863.38;5048642;28;20049;-59
2022/01/09 05:07:33;;;;;;;11.57;4.55;;;;;;;-1.10;93.14;98867.81;5033991;28;20053;-60
2022/01/09 05:10:00;;;;;;;11.27;4.95;;;;;;;-1.02;93.45;98868.34;5049435;28;20447;-58
2022/01/09 05:12:27;;;;;;;10.98;5.32;;;;;;;-0.98;92.83;98866.50;5042019;28;20453;-59
2022/01/09 05:14:54;;;;;;;9.70;4.95;;;;;;;-1.06;92.60;98874.53;5046423;28;20087;-60
2022/01/09 05:17:22;;;;;;;8.30;4.65;;;;;;;-0.95;92.19;98878.44;5044929;28;20056;-61
2022/01/09 05:19:52;;;;;;;6.75;4.60;;;;;;;-1.07;92.56;98869.44;5045571;28;20070;-60
2022/01/09 05:22:19;;;;;;;9.65;4.82;;;;;;;-1.00;92.10;98876.03;5030544;28;20056;-61
2022/01/09 05:24:46;;;;;;;9.30;4.65;;;;;;;-1.00;92.18;98870.84;5043233;28;20043;-58
2022/01/09 05:27:13;;;;;;;10.48;4.70;;;;;;;-1.00;92.53;98880.34;5055600;28;20425;-60
2022/01/09 05:29:40;;;;;;;9.80;5.10;;;;;;;-1.00;92.37;98873.44;5044018;28;20053;-61
2022/01/09 05:32:08;;;;;;;10.38;5.55;;;;;;;-1.03;92.03;98876.16;5050565;28;20133;-62
2022/01/09 05:34:35;;;;;;;13.20;4.70;;;;;;;-1.02;92.40;98883.00;5050147;28;20139;-62
2022/01/09 05:37:04;;;;;;;9.90;4.88;;;;;;;-0.96;91.74;98884.50;5032854;28;20420;-60
2022/01/09 05:39:33;;;;;;;11.55;5.10;;;;;;;-0.97;92.32;98877.66;5045932;28;20053;-61
2022/01/09 05:42:05;;;;;;;8.20;5.15;;;;;;;-0.95;92.09;98871.50;5049824;28;20136;-61
2022/01/09 05:44:32;;;;;;;10.98;4.65;;;;;;;-0.95;92.09;98886.16;5045543;28;20440;-62
2022/01/09 05:47:00;;;;;;;8.35;4.53;;;;;;;-1.00;92.15;98880.34;5049417;28;20592;-62
2022/01/09 05:49:28;;;;;;;13.32;4.88;;;;;;;-0.95;91.94;98874.09;5041541;28;20533;-62
2022/01/09 05:51:55;;;;;;;11.15;5.57;;;;;;;-0.80;90.75;98877.81;5048540;28;20067;-61
2022/01/09 05:54:22;;;;;;;11.32;5.15;;;;;;;-0.85;91.13;98880.59;5043160;28;20048;-63
2022/01/09 05:56:51;;;;;;;11.15;4.97;;;;;;;-0.88;91.04;98867.78;5043328;28;20115;-61
2022/01/09 05:59:18;;;;;;;11.75;5.25;;;;;;;-0.83;90.52;98859.84;5042488;28;20057;-60
2022/01/09 06:01:46;;;;;;;9.38;4.70;;;;;;;-0.82;90.45;98871.88;5050841;28;20493;-62
2022/01/09 06:04:13;;;;;;;10.98;4.50;;;;;;;-0.76;90.83;98871.63;5040287;28;20056;-61
2022/01/09 06:06:40;;;;;;;10.13;5.00;;;;;;;-0.74;90.33;98880.16;5047781;28;20077;-60
2022/01/09 06:09:09;;;;;;;8.15;4.38;;;;;;;-0.65;90.12;98877.19;5044837;28;20055;-61
2022/01/09 06:11:37;;;;;;;12.15;4.68;;;;;;;-0.60;90.11;98877.84;5026213;28;20045;-60
2022/01/09 06:14:04;;;;;;;9.85;4.78;;;;;;;-0.50;89.21;98880.88;5050737;28;20132;-59
2022/01/09 06:16:31;;;;;;;9.32;5.35;;;;;;;-0.57;88.65;98863.97;5044079;28;20521;-60
2022/01/09 06:18:58;;;;;;;8.88;5.30;;;;;;;-0.48;88.46;98870.50;5051106;28;20744;-62
2022/01/09 06:21:28;;;;;;;12.20;5.13;;;;;;;-0.46;88.44;98864.34;5044117;28;20045;-59
2022/01/09 06:23:55;;;;;;;9.95;4.82;;;;;;;-0.49;88.62;98873.97;5043867;28;20080;-61
2022/01/09 06:26:22;;;;;;;9.32;4.50;;;;;;;-0.39;88.08;98864.94;5052308;28;20049;-61
2022/01/09 06:28:49;;;;;;;11.70;5.57;;;;;;;-0.46;87.83;98871.25;5051501;28;20456;-60
2022/01/09 06:31:17;;;;;;;9.73;4.95;;;;;;;-0.54;88.25;98861.22;5047049;28;20098;-60
2022/01/09 06:33:44;;;;;;;9.48;5.45;;;;;;;-0.47;88.32;98869.56;5047039;28;20052;-59
2022/01/09 06:36:11;;;;;;;11.68;5.22;;;;;;;-0.42;87.97;98877.97;5047368;28;20523;-61
2022/01/09 06:38:38;;;;;;;16.05;5.20;;;;;;;-0.40;88.00;98873.59;5031814;28;20167;-62
2022/01/09 06:41:07;;;;;;;10.52;5.97;;;;;;;-0.36;87.89;98877.69;5049366;28;20064;-61
2022/01/09 06:43:34;;;;;;;8.60;4.90;;;;;;;-0.40;87.68;98873.59;5047554;28;20972;-61
2022/01/09 06:46:01;;;;;;;8.25;4.93;;;;;;;-0.40;87.77;98883.94;5042763;28;20128;-61
2022/01/09 06:48:28;;;;;;;8.63;5.15;;;;;;;-0.34;87.66;98876.75;5048976;28;20077;-61
2022/01/09 06:50:55;;;;;;;8.90;4.72;;;;;;;-0.38;87.67;98880.38;5051487;28;20128;-60
2022/01/09 06:53:23;;;;;;;12.00;5.43;;;;;;;-0.31;87.40;98875.78;5044827;28;20075;-61
2022/01/09 06:55:50;;;;;;;9.88;4.75;;;;;;;-0.32;87.85;98874.91;5047053;28;20121;-62
2022/01/09 06:58:18;;;;;;;11.15;5.28;;;;;;;-0.34;87.45;98871.56;5045211;28;20063;-62
2022/01/09 07:00:46;;;;;;;9.05;4.88;;;;;;;-0.31;87.54;98870.63;5050391;28;20063;-61
2022/01/09 07:03:14;;;;;;;8.55;4.60;;;;;;;-0.29;86.71;98861.88;5021994;28;20068;-62
2022/01/09 07:05:41;;;;;;;9.07;5.30;;;;;;;-0.27;86.79;98873.00;5048013;28;20045;-60
2022/01/09 07:08:10;;;;;;;9.63;4.82;;;;;;;-0.17;85.87;98859.69;5046337;28;20177;-61
2022/01/09 07:10:37;;;;;;;10.27;4.75;;;;;;;-0.24;86.54;98866.00;5042480;28;20148;-62
2022/01/09 07:13:04;;;;;;;8.43;5.15;;;;;;;-0.18;86.70;98863.16;5047815;28;20501;-62
2022/01/09 07:15:31;;;;;;;12.25;5.05;;;;;;;-0.14;86.13;98856.94;5043582;28;20417;-60
2022/01/09 07:17:58;;;;;;;11.15;5.00;;;;;;;-0.15;86.19;98856.09;5051955;28;20135;-61
2022/01/09 07:20:29;;;;;;;10.15;5.10;;;;;;;-0.20;85.97;98863.22;5052670;28;20060;-62
2022/01/09 07:22:56;;;;;;;9.07;5.00;;;;;;;-0.23;86.21;98859.94;5049156;28;20057;-60
2022/01/09 07:25:23;;;;;;;15.07;5.85;;;;;;;-0.09;86.26;98860.16;5043497;28;20057;-62
2022/01/09 07:27:50;;;;;;;10.98;5.63;;;;;;;-0.13;86.19;98867.25;5054299;28;20132;-61
2022/01/09 07:30:17;;;;;;;10.43;5.63;;;;;;;-0.08;85.65;98862.69;5049711;28;20146;-61
2022/01/09 07:32:44;;;;;;;9.75;5.20;;;;;;;-0.05;85.40;98870.31;5046314;28;20052;-61
2022/01/09 07:35:12;;;;;;;13.77;4.97;;;;;;;-0.10;85.75;98871.41;5026741;28;20133;-60
2022/01/09 07:37:39;;;;;;;13.70;5.55;;;;;;;-0.14;85.54;98865.53;5024429;28;20084;-61
2022/01/09 07:40:06;;;;;;;12.38;5.35;;;;;;;-0.05;85.16;98859.13;5047570;28;20049;-61
2022/01/09 07:42:33;;;;;;;12.38;6.57;;;;;;;-0.04;85.18;98871.19;5047444;28;20102;-60
2022/01/09 07:45:01;;;;;;;10.88;5.43;;;;;;;-0.06;85.21;98873.81;5030106;28;20057;-61
2022/01/09 07:47:28;;;;;;;9.77;5.28;;;;;;;-0.01;85.12;98865.84;5047846;28;20091;-64
2022/01/09 07:49:55;;;;;;;10.88;5.63;;;;;;;0.02;84.76;98873.47;5043473;28;20065;-59
2022/01/09 07:52:22;;;;;;;11.45;5.45;;;;;;;0.10;84.53;98870.56;5052708;28;20055;-58
2022/01/09 07:54:49;;;;;;;10.15;5.78;;;;;;;0.11;84.48;98875.66;5033805;28;20075;-58
2022/01/09 07:57:17;;;;;;;8.77;5.28;;;;;;;0.15;83.79;98872.03;5043119;28;20136;-61
2022/01/09 07:59:44;;;;;;;11.02;6.45;;;;;;;0.20;84.23;98877.84;5031312;28;20094;-59
2022/01/09 08:02:11;;;;;;;10.85;6.78;;;;;;;0.15;83.95;98868.59;5052909;28;20048;-60
2022/01/09 08:04:39;;;;;;;13.20;6.75;;;;;;;0.27;83.78;98867.19;5030255;28;20513;-60
2022/01/09 08:07:10;;;;;;;11.32;6.20;;;;;;;0.23;83.87;98861.34;5044866;28;20136;-59
2022/01/09 08:09:39;;;;;;;11.27;5.82;;;;;;;0.30;83.95;98867.06;5049079;28;20476;-63
2022/01/09 08:12:10;;;;;;;10.40;6.50;;;;;;;0.39;83.59;98869.25;5027991;28;20067;-57
2022/01/09 08:14:38;;;;;;;10.52;5.05;;;;;;;0.40;82.99;98869.16;5033102;28;20047;-61
2022/01/09 08:17:05;;;;;;;10.55;5.85;;;;;;;0.37;82.96;98876.25;5048771;28;20074;-60
2022/01/09 08:19:33;;;;;;;10.80;5.88;;;;;;;0.43;82.25;98869.03;5049102;28;20143;-59
2022/01/09 08:22:00;;;;;;;8.73;5.55;;;;;;;0.48;81.91;98874.84;5055327;28;20066;-62
2022/01/09 08:24:27;;;;;;;11.27;6.22;;;;;;;0.56;82.22;98871.06;5047769;28;20056;-61
2022/01/09 08:26:54;;;;;;;11.07;5.53;;;;;;;0.61;81.66;98866.50;5054515;28;20156;-58
2022/01/09 08:29:21;;;;;;;12.43;5.53;;;;;;;0.55;81.49;98872.81;5049874;28;20219;-61
2022/01/09 08:31:48;;;;;;;16.95;6.75;;;;;;;0.54;81.42;98865.97;5054593;28;20128;-61
2022/01/09 08:34:16;;;;;;;9.85;5.45;;;;;;;0.55;82.20;98866.81;5042127;28;20136;-60
2022/01/09 08:36:43;;;;;;;14.40;5.70;;;;;;;0.59;81.60;98869.19;5049275;28;20475;-60
2022/01/09 08:39:10;;;;;;;12.93;5.32;;;;;;;0.61;81.16;98867.34;5029821;28;20055;-61
2022/01/09 08:41:38;;;;;;;11.98;5.43;;;;;;;0.67;81.19;98866.22;5050663;28;20140;-61
2022/01/09 08:44:06;;;;;;;12.05;5.93;;;;;;;0.76;80.91;98879.56;5034058;28;20057;-61
2022/01/09 08:46:35;;;;;;;11.25;5.68;;;;;;;0.87;80.03;98871.31;5049954;28;20073;-60
2022/01/09 08:49:04;;;;;;;10.30;5.20;;;;;;;0.84;79.55;98868.84;5048424;28;20156;-60
2022/01/09 08:51:31;;;;;;;12.98;5.93;;;;;;;0.88;80.03;98878.16;5048134;28;20072;-61
2022/01/09 08:53:59;;;;;;;11.30;5.20;;;;;;;0.91;79.40;98869.41;5046381;28;20505;-61
2022/01/09 08:56:27;;;;;;;10.95;5.88;;;;;;;0.92;79.47;98873.69;5047517;28;20057;-60
2022/01/09 08:58:57;;;;;;;8.35;4.97;;;;;;;1.01;79.25;98881.84;5051841;28;20048;-60
2022/01/09 09:01:43;;;;;;;9.57;5.13;;;;;;;1.09;78.31;98876.31;5031119;28;20088;-61
2022/01/09 09:04:10;;;;;;;9.15;5.18;;;;;;;1.09;78.21;98876.31;5045715;28;20057;-61
2022/01/09 09:06:38;;;;;;;9.82;5.38;;;;;;;1.11;78.24;98876.22;5026637;28;20273;-61
2022/01/09 09:09:06;;;;;;;10.90;5.30;;;;;;;1.13;78.39;98874.41;5046126;28;20127;-61
2022/01/09 09:11:33;;;;;;;10.00;5.10;;;;;;;1.23;78.40;98870.47;5045058;28;20136;-61
2022/01/09 09:14:01;;;;;;;11.00;5.15;;;;;;;1.32;77.33;98874.34;5046774;28;20501;-62
2022/01/09 09:16:29;;;;;;;10.63;5.53;;;;;;;1.27;77.08;98878.00;5044837;28;20127;-61
2022/01/09 09:18:56;;;;;;;8.98;4.43;;;;;;;1.29;77.28;98875.34;5050278;28;20056;-60
2022/01/09 09:21:24;;;;;;;9.32;5.07;;;;;;;1.25;77.50;98876.41;5052810;28;20056;-60
2022/01/09 09:23:51;;;;;;;11.25;5.38;;;;;;;1.20;77.44;98881.81;5046781;28;20133;-61
2022/01/09 09:26:18;;;;;;;8.65;5.20;;;;;;;1.21;77.83;98878.28;5047175;28;20084;-61
2022/01/09 09:28:45;;;;;;;7.47;4.38;;;;;;;1.18;77.20;98886.22;5046668;28;20788;-61
2022/01/09 09:31:13;;;;;;;9.20;4.97;;;;;;;1.12;77.79;98885.66;5048883;28;20128;-61
2022/01/09 09:33:40;;;;;;;8.75;4.47;;;;;;;1.19;77.99;98890.50;5048962;28;20073;-61
2022/01/09 09:36:07;;;;;;;8.48;4.43;;;;;;;1.23;78.04;98888.59;5045890;28;20422;-62
2022/01/09 09:38:35;;;;;;;7.82;4.18;;;;;;;1.31;78.12;98888.25;5046110;28;20056;-61
2022/01/09 09:41:02;;;;;;;8.45;4.93;;;;;;;1.38;77.17;98899.97;5055229;28;20484;-61
2022/01/09 09:43:29;;;;;;;6.88;4.28;;;;;;;1.39;77.40;98897.28;5051407;28;20076;-61
2022/01/09 09:45:56;;;;;;;12.68;5.65;;;;;;;1.40;77.88;98896.41;5045930;28;20120;-62
2022/01/09 09:48:24;;;;;;;7.80;4.00;;;;;;;1.44;77.08;98892.75;5054772;28;20052;-62
2022/01/09 09:50:51;;;;;;;9.55;4.47;;;;;;;1.44;77.05;98894.47;5050480;28;20045;-61
2022/01/09 09:53:18;;;;;;;9.15;4.43;;;;;;;1.49;77.62;98905.47;5052450;28;20124;-62
2022/01/09 09:55:48;;;;;;;11.32;4.65;;;;;;;1.50;77.06;98900.22;5050335;28;20049;-62
2022/01/09 09:58:15;;;;;;;7.35;4.50;;;;;;;1.59;77.54;98901.50;5050085;28;20055;-60
2022/01/09 10:00:50;;;;;;;7.70;3.90;;;;;;;1.54;77.48;98910.44;5051929;28;20132;-61
2022/01/09 10:03:26;;;;;;;10.45;4.50;;;;;;;1.57;77.04;98899.91;5050096;28;20049;-60
2022/01/09 10:05:53;;;;;;;10.57;4.88;;;;;;;1.59;76.44;98898.91;5050259;28;20124;-60
2022/01/09 10:08:21;;;;;;;9.40;4.90;;;;;;;1.63;77.06;98904.81;5050498;28;20167;-59
2022/01/09 10:10:48;;;;;;;7.95;4.20;;;;;;;1.68;77.35;98905.41;5047581;28;20044;-60
2022/01/09 10:13:18;;;;;;;7.80;4.35;;;;;;;1.67;76.67;98906.31;5031079;28;20053;-61
2022/01/09 10:15:51;;;;;;;8.48;4.93;;;;;;;1.74;76.75;98905.91;5047599;28;20517;-60
2022/01/09 10:18:41;;;;;;;12.75;4.80;;;;;;;1.89;76.39;98909.50;5043203;28;20136;-60
2022/01/09 10:21:16;;;;;;;8.43;4.32;;;;;;;2.06;77.21;98903.44;5050128;28;20501;-61
2022/01/09 10:24:06;;;;;;;10.73;4.60;;;;;;;2.20;75.85;98911.34;5050049;28;20056;-60
2022/01/09 10:26:36;;;;;;;6.75;4.22;;;;;;;2.21;74.84;98907.03;5047066;28;20633;-62
2022/01/09 10:29:05;;;;;;;8.82;4.72;;;;;;;2.34;74.99;98902.81;5047026;28;20060;-59
2022/01/09 10:31:43;;;;;;;7.78;4.65;;;;;;;2.43;73.86;98899.78;5048342;28;20053;-60
2022/01/09 10:34:11;;;;;;;10.93;4.45;;;;;;;2.45;73.53;98904.88;5045359;28;20101;-60
2022/01/09 10:36:42;;;;;;;8.32;4.93;;;;;;;2.51;74.20;98910.56;5047923;28;20053;-60
2022/01/09 10:39:16;;;;;;;7.95;4.00;;;;;;;2.69;73.42;98903.56;5045633;28;20127;-61
2022/01/09 10:41:58;;;;;;;8.00;4.63;;;;;;;2.84;72.24;98906.22;5050978;28;20127;-63
2022/01/09 10:44:27;;;;;;;7.63;4.28;;;;;;;2.99;72.14;98897.59;5044290;28;20114;-60
2022/01/09 10:47:01;;;;;;;9.07;3.88;;;;;;;3.18;71.37;98905.22;5044622;28;20056;-58
2022/01/09 10:49:36;;;;;;;9.48;4.55;;;;;;;3.35;70.65;98899.06;5045171;28;20590;-61
2022/01/09 10:52:23;;;;;;;10.77;4.85;;;;;;;3.45;70.61;98897.59;5026359;28;20041;-61
2022/01/09 10:54:51;;;;;;;8.10;4.28;;;;;;;3.50;70.16;98901.63;5045666;28;20448;-61
2022/01/09 10:57:25;;;;;;;9.95;4.35;;;;;;;3.47;70.21;98911.38;5047284;28;20072;-62
2022/01/09 10:59:53;;;;;;;9.43;4.40;;;;;;;3.33;70.33;98909.53;5046360;28;20048;-58
2022/01/09 11:02:20;;;;;;;8.57;4.50;;;;;;;3.24;71.49;98916.13;5043333;28;20049;-59
2022/01/09 11:04:48;;;;;;;7.90;4.45;;;;;;;3.19;70.88;98917.28;5040184;28;20037;-60
2022/01/09 11:07:16;;;;;;;8.00;4.30;;;;;;;3.21;70.83;98911.09;5043673;28;20057;-60
2022/01/09 11:09:47;;;;;;;9.38;5.63;;;;;;;3.22;71.03;98917.13;5015511;28;20136;-62
2022/01/09 11:12:21;;;;;;;6.57;3.90;;;;;;;3.26;71.23;98909.06;5049245;28;20068;-61
2022/01/09 11:14:49;;;;;;;9.25;4.68;;;;;;;3.37;70.74;98915.41;5027190;28;20136;-61
2022/01/09 11:17:17;;;;;;;7.22;4.03;;;;;;;3.60;70.03;98919.28;5043276;28;20132;-62
2022/01/09 11:19:45;;;;;;;10.30;4.57;;;;;;;3.67;69.63;98926.66;5030214;28;20051;-60
2022/01/09 11:22:13;;;;;;;5.63;3.67;;;;;;;3.69;69.73;98923.97;5051051;28;20049;-61
2022/01/09 11:25:26;;;;;;;10.10;4.63;;;;;;;3.74;68.85;98924.56;5046505;28;20053;-61
2022/01/09 11:28:23;;;;;;;7.90;4.10;;;;;;;3.89;69.16;98928.03;5007651;28;20140;-61
2022/01/09 11:31:23;;;;;;;12.63;4.45;;;;;;;3.72;68.86;98934.22;5040527;28;20057;-60
2022/01/09 11:33:55;;;;;;;6.90;4.20;;;;;;;3.54;70.04;98931.72;5055311;28;20056;-59
2022/01/09 11:36:29;;;;;;;10.27;4.00;;;;;;;3.45;70.65;98934.84;5053744;28;20063;-61
2022/01/09 11:39:12;;;;;;;7.47;4.07;;;;;;;3.53;70.64;98934.44;5044429;28;20523;-61